createdAt,value
2019-02-28T00:07:38.047Z,99380.30
2019-02-28T00:17:42.868Z,99371.75
2019-02-28T00:27:43.119Z,99375.89
2019-02-28T00:37:46.741Z,99369.34
2019-02-28T00:47:48.359Z,99358.96
2019-02-28T00:57:49.139Z,99358.81
2019-02-28T01:07:50.078Z,99345.28
2019-02-28T01:17:50.920Z,99332.75
2019-02-28T01:27:52.423Z,99327.63
2019-02-28T01:37:55.579Z,99323.97
2019-02-28T01:47:59.400Z,99316.66
2019-02-28T01:58:02.429Z,99305.23
2019-02-28T02:08:06.518Z,99293.36
2019-02-28T02:18:09.447Z,99282.18
2019-02-28T02:28:09.029Z,99270.05
2019-02-28T02:38:10.562Z,99258.56
2019-02-28T02:48:11.386Z,99241.74
2019-02-28T02:58:12.124Z,99235.70
2019-02-28T03:08:12.841Z,99223.80
2019-02-28T03:18:20.434Z,99205.08
2019-02-28T03:28:21.353Z,99194.49
2019-02-28T03:38:22.091Z,99187.57
2019-02-28T03:48:23.003Z,99185.00
2019-02-28T03:58:23.842Z,99181.02
2019-02-28T04:08:29.329Z,99180.39
2019-02-28T04:18:27.549Z,99174.34
2019-02-28T04:28:28.422Z,99177.51
2019-02-28T04:38:29.676Z,99177.59
2019-02-28T04:48:30.387Z,99171.23
2019-02-28T04:58:31.423Z,99146.84
2019-02-28T05:08:32.751Z,99148.73
2019-02-28T05:18:33.674Z,99152.41
2019-02-28T05:28:40.273Z,99142.09
2019-02-28T05:38:37.376Z,99147.77
2019-02-28T05:48:38.691Z,99150.30
2019-02-28T05:58:40.180Z,99160.03
2019-02-28T06:08:41.081Z,99163.22
2019-02-28T06:18:41.729Z,99175.63
2019-02-28T06:28:42.423Z,99166.73
2019-02-28T06:38:43.121Z,99170.08
2019-02-28T06:48:47.497Z,99178.84
2019-02-28T06:58:48.200Z,99184.05
2019-02-28T07:08:49.025Z,99188.82
2019-02-28T07:18:53.808Z,99182.30
2019-02-28T07:28:53.706Z,99176.55
2019-02-28T07:38:54.674Z,99177.70
2019-02-28T07:48:55.388Z,99178.95
2019-02-28T07:58:56.365Z,99167.42
2019-02-28T08:08:57.244Z,99180.17
2019-02-28T08:18:57.923Z,99170.48
2019-02-28T08:28:58.974Z,99168.77
2019-02-28T08:38:59.667Z,99150.91
2019-02-28T08:49:06.304Z,99139.86
2019-02-28T08:59:11.518Z,99147.00
2019-02-28T09:09:08.934Z,99148.48
2019-02-28T09:19:09.621Z,99133.91
2019-02-28T09:29:10.366Z,99138.36
2019-02-28T09:39:11.107Z,99140.31
2019-02-28T09:49:12.964Z,99143.36
2019-02-28T09:59:16.711Z,99126.51
2019-02-28T10:09:17.762Z,99139.75
2019-02-28T10:19:18.448Z,99133.39
2019-02-28T10:29:19.177Z,99128.23
2019-02-28T10:39:19.952Z,99120.02
2019-02-28T10:49:21.092Z,99105.61
2019-02-28T10:59:24.427Z,99087.59
2019-02-28T11:09:25.997Z,99095.95
2019-02-28T11:19:26.863Z,99096.40
2019-02-28T11:29:27.510Z,99100.13
2019-02-28T11:39:33.798Z,99082.39
2019-02-28T11:49:34.704Z,99075.45
2019-02-28T11:59:35.692Z,99065.78
2019-02-28T12:09:36.771Z,99057.88
2019-02-28T12:19:37.433Z,99055.98
2019-02-28T12:29:40.893Z,99035.98
2019-02-28T12:39:41.594Z,99018.74
2019-02-28T12:49:42.376Z,99010.13
2019-02-28T12:59:46.051Z,99016.63
2019-02-28T13:09:48.224Z,99001.20
2019-02-28T13:19:53.229Z,98992.39
2019-02-28T13:29:53.709Z,98985.45
2019-02-28T13:39:54.389Z,98978.97
2019-02-28T13:49:55.187Z,98971.74
2019-02-28T13:59:55.822Z,98974.41
2019-02-28T14:09:58.171Z,98959.48
2019-02-28T14:20:03.696Z,98945.94
2019-02-28T14:30:16.157Z,98938.26
2019-02-28T14:40:17.791Z,98935.55
2019-02-28T14:50:19.997Z,98922.12
2019-02-28T15:00:22.851Z,98927.63
2019-02-28T15:10:25.575Z,98910.51
2019-02-28T15:20:31.524Z,98922.01
2019-02-28T15:30:39.670Z,98935.59
2019-02-28T15:40:42.312Z,98927.28
2019-02-28T15:50:42.986Z,98941.17
2019-02-28T16:00:43.712Z,98979.55
2019-02-28T16:10:52.867Z,99004.95
2019-02-28T16:20:47.511Z,99014.87
2019-02-28T16:30:48.212Z,99043.51
2019-02-28T16:40:49.232Z,99050.30
2019-02-28T16:50:50.715Z,99081.16
2019-02-28T17:00:52.852Z,99094.77
2019-02-28T17:10:54.773Z,99083.02
2019-02-28T17:20:55.525Z,99095.16
2019-02-28T17:30:56.253Z,99094.14
2019-02-28T17:40:58.791Z,99092.08
2019-02-28T17:51:06.207Z,99101.39
2019-02-28T18:01:25.385Z,99094.42
2019-02-28T18:11:35.951Z,99090.20
2019-02-28T18:21:41.013Z,99081.91
2019-02-28T18:31:42.565Z,99078.05
2019-02-28T18:41:43.342Z,99066.41
2019-02-28T18:52:10.576Z,99077.41
2019-02-28T19:02:11.245Z,99065.80
2019-02-28T19:12:13.856Z,99063.04
2019-02-28T19:22:14.566Z,99052.93
2019-02-28T19:32:15.328Z,99055.58
2019-02-28T19:42:16.652Z,99040.87
2019-02-28T19:52:17.666Z,99060.48
2019-02-28T20:02:21.213Z,99054.25
2019-02-28T20:12:22.077Z,99053.92
2019-02-28T20:22:23.014Z,99042.80
2019-02-28T20:32:23.787Z,99041.16
2019-02-28T20:42:25.839Z,99026.66
2019-02-28T20:52:26.594Z,99011.16
2019-02-28T21:02:27.358Z,99014.06
2019-02-28T21:12:29.302Z,99025.99
2019-02-28T21:22:30.161Z,99011.66
2019-02-28T21:32:30.814Z,99005.18
2019-02-28T21:42:31.466Z,98983.89
2019-02-28T21:52:32.211Z,98955.08
2019-02-28T22:02:32.964Z,98952.44
2019-02-28T22:12:33.975Z,98942.41
2019-02-28T22:22:34.682Z,98930.80
2019-02-28T22:32:35.630Z,98909.62
2019-02-28T22:42:36.653Z,98903.91
2019-02-28T22:52:37.741Z,98888.91
2019-02-28T23:02:38.855Z,98882.89
2019-02-28T23:12:39.521Z,98874.89
2019-02-28T23:22:40.228Z,98891.83
2019-02-28T23:32:44.927Z,98891.28
2019-02-28T23:42:45.761Z,98885.34
2019-02-28T23:52:46.521Z,98900.41
